createdAt,value
2022-09-21T00:00:46.202Z,13.67
2022-09-21T00:06:08.522Z,9.03
2022-09-21T00:11:39.810Z,9.27
2022-09-21T00:17:05.531Z,10.30
2022-09-21T00:22:24.637Z,9.33
2022-09-21T00:28:17.187Z,9.60
2022-09-21T00:33:30.987Z,9.50
2022-09-21T00:39:08.357Z,13.97
2022-09-21T00:44:27.421Z,10.27
2022-09-21T00:49:30.904Z,10.07
2022-09-21T00:54:41.878Z,10.80
2022-09-21T00:59:46.338Z,9.63
2022-09-21T01:04:55.410Z,10.63
2022-09-21T01:10:57.477Z,10.57
2022-09-21T01:16:44.347Z,12.27
2022-09-21T01:22:19.211Z,9.47
2022-09-21T01:28:00.286Z,10.07
2022-09-21T01:33:28.730Z,10.03
2022-09-21T01:38:57.487Z,9.47
2022-09-21T01:44:17.944Z,10.17
2022-09-21T01:49:30.767Z,8.70
2022-09-21T01:54:49.308Z,9.63
2022-09-21T01:59:57.930Z,13.83
2022-09-21T02:05:11.710Z,11.47
2022-09-21T02:10:28.695Z,9.80
2022-09-21T02:22:05.280Z,15.53
2022-09-21T02:27:40.245Z,9.80
2022-09-21T02:33:07.407Z,9.93
2022-09-21T02:38:46.798Z,12.20
2022-09-21T02:44:14.580Z,10.07
2022-09-21T02:49:26.453Z,9.90
2022-09-21T02:54:36.719Z,13.23
2022-09-21T02:59:40.671Z,10.17
2022-09-21T03:04:56.926Z,10.53
2022-09-21T03:10:02.160Z,9.77
2022-09-21T03:15:06.048Z,13.03
2022-09-21T03:20:09.003Z,13.17
2022-09-21T03:25:13.183Z,12.00
2022-09-21T03:30:15.963Z,13.47
2022-09-21T03:35:23.168Z,12.10
2022-09-21T03:40:27.474Z,15.10
2022-09-21T03:45:30.216Z,11.33
2022-09-21T03:50:32.947Z,12.33
2022-09-21T03:55:35.839Z,12.13
2022-09-21T04:00:39.298Z,11.57
2022-09-21T04:05:57.473Z,11.83
2022-09-21T04:11:13.519Z,14.73
2022-09-21T04:16:24.649Z,15.50
2022-09-21T04:21:31.285Z,11.80
2022-09-21T04:26:48.258Z,13.43
2022-09-21T04:32:16.778Z,13.07
2022-09-21T04:37:41.006Z,12.80
2022-09-21T04:43:05.881Z,14.53
2022-09-21T04:48:18.836Z,12.63
2022-09-21T04:53:34.336Z,14.03
2022-09-21T04:58:48.066Z,14.17
2022-09-21T05:04:10.940Z,11.70
2022-09-21T05:09:32.362Z,13.97
2022-09-21T05:14:35.036Z,14.43
2022-09-21T05:19:37.671Z,17.13
2022-09-21T05:24:40.348Z,16.23
2022-09-21T05:29:43.254Z,12.80
2022-09-21T05:35:08.685Z,14.13
2022-09-21T05:40:13.011Z,22.20
2022-09-21T05:45:18.239Z,15.93
2022-09-21T05:50:32.922Z,18.00
2022-09-21T05:55:55.031Z,18.50
2022-09-21T06:01:03.799Z,16.73
2022-09-21T06:06:20.569Z,15.43
2022-09-21T06:11:40.217Z,23.43
2022-09-21T06:17:05.622Z,15.63
2022-09-21T06:22:23.159Z,18.03
2022-09-21T06:27:42.947Z,25.37
2022-09-21T06:33:06.780Z,18.63
2022-09-21T06:38:44.443Z,17.17
2022-09-21T06:44:12.721Z,16.33
2022-09-21T06:49:22.941Z,19.53
2022-09-21T06:54:31.208Z,20.17
2022-09-21T06:59:34.288Z,19.83
2022-09-21T07:04:49.903Z,28.87
2022-09-21T07:10:17.153Z,22.87
2022-09-21T07:21:07.911Z,24.20
2022-09-21T07:26:26.990Z,25.33
2022-09-21T07:37:20.007Z,21.20
2022-09-21T07:42:40.387Z,23.43
2022-09-21T07:48:01.237Z,22.50
2022-09-21T07:53:20.559Z,22.60
2022-09-21T07:58:54.402Z,22.43
2022-09-21T08:04:19.193Z,20.90
2022-09-21T08:09:23.013Z,22.73
2022-09-21T08:14:27.542Z,27.13
2022-09-21T08:19:30.475Z,26.67
2022-09-21T08:24:33.599Z,28.63
2022-09-21T08:29:40.914Z,19.53
2022-09-21T08:34:58.784Z,18.97
2022-09-21T08:40:14.608Z,20.87
2022-09-21T08:45:20.221Z,23.53
2022-09-21T08:50:25.674Z,17.20
2022-09-21T08:55:28.419Z,21.77
2022-09-21T09:00:35.445Z,19.73
2022-09-21T09:06:08.176Z,21.33
2022-09-21T09:11:27.385Z,17.90
2022-09-21T09:17:52.647Z,14.47
2022-09-21T09:23:27.424Z,14.03
2022-09-21T09:29:09.256Z,13.87
2022-09-21T09:34:21.581Z,12.37
2022-09-21T09:39:31.651Z,13.47
2022-09-21T09:44:50.775Z,11.93
2022-09-21T09:50:02.284Z,12.93
2022-09-21T09:55:39.684Z,10.40
2022-09-21T10:00:42.878Z,10.53
2022-09-21T10:05:50.480Z,12.03
2022-09-21T10:11:16.496Z,12.40
2022-09-21T10:16:27.470Z,8.03
2022-09-21T10:21:58.687Z,11.77
2022-09-21T10:27:22.905Z,8.00
2022-09-21T10:32:48.558Z,6.20
2022-09-21T10:38:40.138Z,4.30
2022-09-21T10:43:58.867Z,4.10
2022-09-21T10:49:18.856Z,6.67
2022-09-21T10:54:26.789Z,5.40
2022-09-21T10:59:32.449Z,6.57
2022-09-21T11:04:58.715Z,4.07
2022-09-21T11:10:24.783Z,5.83
2022-09-21T11:16:17.361Z,3.83
2022-09-21T11:22:04.213Z,6.07
2022-09-21T11:27:39.697Z,10.63
2022-09-21T11:33:28.123Z,6.33
2022-09-21T11:39:27.454Z,3.73
2022-09-21T11:44:58.750Z,3.93
2022-09-21T11:50:29.709Z,3.70
2022-09-21T11:55:36.564Z,9.97
2022-09-21T12:00:57.732Z,2.83
2022-09-21T12:06:35.804Z,3.77
2022-09-21T12:12:22.635Z,4.03
2022-09-21T12:18:00.043Z,2.40
2022-09-21T12:23:28.640Z,6.30
2022-09-21T12:29:25.271Z,3.60
2022-09-21T12:34:37.978Z,2.60
2022-09-21T12:39:51.657Z,3.30
2022-09-21T12:45:06.597Z,3.93
2022-09-21T12:50:21.158Z,5.23
2022-09-21T12:55:35.284Z,5.30
2022-09-21T13:01:20.871Z,4.63
2022-09-21T13:07:25.273Z,4.33
2022-09-21T13:13:10.447Z,3.00
2022-09-21T13:18:43.857Z,3.87
2022-09-21T13:24:01.498Z,7.70
2022-09-21T13:29:25.323Z,4.77
2022-09-21T13:34:37.023Z,5.20
2022-09-21T13:39:55.805Z,3.83
2022-09-21T13:45:26.162Z,3.00
2022-09-21T13:50:44.714Z,2.53
2022-09-21T13:56:22.068Z,2.57
2022-09-21T14:07:12.722Z,2.50
2022-09-21T14:12:41.343Z,2.53
2022-09-21T14:18:28.040Z,3.20
2022-09-21T14:23:34.345Z,1.87
2022-09-21T14:29:01.127Z,4.20
2022-09-21T14:34:18.511Z,6.53
2022-09-21T14:39:45.449Z,12.23
2022-09-21T14:44:52.955Z,7.57
2022-09-21T14:50:07.520Z,4.93
2022-09-21T14:55:35.752Z,3.47
2022-09-21T15:00:39.981Z,3.87
2022-09-21T15:05:44.942Z,5.03
2022-09-21T15:11:23.581Z,3.50
2022-09-21T15:16:50.409Z,3.03
2022-09-21T15:22:41.116Z,2.20
2022-09-21T15:27:55.211Z,2.87
2022-09-21T15:33:33.440Z,1.67
2022-09-21T15:39:04.592Z,1.90
2022-09-21T15:44:32.416Z,3.10
2022-09-21T15:49:41.310Z,2.33
2022-09-21T15:54:46.036Z,1.97
2022-09-21T15:59:48.727Z,2.80
2022-09-21T16:05:06.287Z,2.30
2022-09-21T16:11:02.903Z,4.00
2022-09-21T16:16:18.429Z,2.57
2022-09-21T16:22:00.728Z,6.23
2022-09-21T16:27:21.651Z,3.37
2022-09-21T16:32:42.222Z,3.27
2022-09-21T16:38:04.626Z,4.20
2022-09-21T16:43:27.869Z,3.00
2022-09-21T16:48:38.002Z,5.30
2022-09-21T16:54:00.577Z,2.87
2022-09-21T16:59:21.656Z,2.60
2022-09-21T17:04:30.651Z,36.37
2022-09-21T17:09:35.588Z,6.17
2022-09-21T17:14:41.912Z,2.97
2022-09-21T17:19:50.161Z,3.63
2022-09-21T17:24:56.256Z,4.50
2022-09-21T17:30:03.562Z,3.33
2022-09-21T17:35:20.210Z,6.77
2022-09-21T17:40:26.429Z,4.93
2022-09-21T17:45:45.123Z,4.73
2022-09-21T17:50:59.589Z,7.03
2022-09-21T17:56:49.785Z,8.60
2022-09-21T18:02:15.482Z,6.97
2022-09-21T18:07:46.241Z,7.33
2022-09-21T18:13:21.271Z,7.67
2022-09-21T18:19:00.357Z,6.33
2022-09-21T18:24:34.934Z,6.10
2022-09-21T18:29:41.360Z,9.00
2022-09-21T18:35:32.831Z,6.00
2022-09-21T18:41:22.143Z,5.93
2022-09-21T18:47:07.902Z,8.33
2022-09-21T18:52:40.232Z,7.20
2022-09-21T18:57:59.555Z,9.10
2022-09-21T19:03:27.935Z,6.23
2022-09-21T19:09:35.466Z,6.00
2022-09-21T19:15:17.889Z,8.50
2022-09-21T19:21:13.433Z,4.67
2022-09-21T19:26:42.708Z,5.53
2022-09-21T19:32:05.823Z,6.47
2022-09-21T19:37:25.296Z,5.33
2022-09-21T19:43:24.713Z,6.13
2022-09-21T19:48:57.109Z,7.07
2022-09-21T19:54:30.082Z,7.93
2022-09-21T19:59:45.259Z,7.30
2022-09-21T20:05:23.531Z,11.27
2022-09-21T20:11:21.199Z,12.13
2022-09-21T20:16:56.262Z,9.93
2022-09-21T20:22:39.203Z,14.20
2022-09-21T20:27:56.000Z,11.70
2022-09-21T20:33:18.702Z,13.73
2022-09-21T20:38:40.707Z,15.57
2022-09-21T20:43:58.923Z,14.23
2022-09-21T20:49:11.456Z,14.37
2022-09-21T20:54:20.395Z,15.57
2022-09-21T20:59:24.748Z,18.60
2022-09-21T21:04:54.595Z,16.47
2022-09-21T21:09:58.864Z,19.90
2022-09-21T21:15:01.497Z,18.50
2022-09-21T21:20:05.803Z,19.27
2022-09-21T21:25:08.942Z,23.33
2022-09-21T21:30:12.194Z,19.20
2022-09-21T21:35:14.942Z,22.67
2022-09-21T21:40:17.751Z,21.73
2022-09-21T21:45:21.679Z,24.30
2022-09-21T21:50:27.501Z,21.70
2022-09-21T21:55:30.201Z,21.80
2022-09-21T22:00:32.951Z,22.70
2022-09-21T22:05:57.642Z,21.83
2022-09-21T22:11:22.521Z,28.97
2022-09-21T22:16:50.365Z,25.57
2022-09-21T22:22:24.345Z,29.73
2022-09-21T22:27:44.723Z,26.17
2022-09-21T22:33:08.624Z,29.40
2022-09-21T22:38:24.282Z,23.40
2022-09-21T22:43:45.941Z,22.87
2022-09-21T22:49:02.632Z,31.63
2022-09-21T22:54:13.677Z,39.33
2022-09-21T22:59:17.339Z,34.30
2022-09-21T23:04:31.805Z,30.67
2022-09-21T23:09:35.064Z,28.80
2022-09-21T23:14:37.808Z,28.10
2022-09-21T23:19:40.477Z,26.17
2022-09-21T23:24:43.413Z,26.07
2022-09-21T23:29:46.148Z,25.63
2022-09-21T23:34:48.850Z,24.63
2022-09-21T23:39:51.499Z,26.90
2022-09-21T23:44:54.164Z,26.23
2022-09-21T23:49:56.823Z,26.27
2022-09-21T23:54:59.485Z,30.07
